Time;durP1;ratioP1;P1;durP2;ratioP2;P2;SDS_P1;SDS_P2;PMS_P1;PMS_P2;Temp;Humidity;BMP_temperature;BMP_pressure;BME280_temperature;BME280_humidity;BME280_pressure;Samples;Min_cycle;Max_cycle;Signal;HPM_P1;HPM_P2
2023/08/13 00:02:17;;;;;;;12.25;3.22;;;;;;;;;;4911503;28;20435;-79
2023/08/13 00:04:43;;;;;;;13.43;3.70;;;;;;;;;;4906786;28;20035;-79
2023/08/13 00:07:10;;;;;;;10.18;3.03;;;;;;;;;;4908471;28;20158;-79
2023/08/13 00:09:36;;;;;;;11.35;3.80;;;;;;;;;;4906189;28;20526;-79
2023/08/13 00:12:02;;;;;;;14.25;3.65;;;;;;;;;;4908071;28;20051;-79
2023/08/13 00:14:29;;;;;;;13.95;3.13;;;;;;;;;;4893060;28;20073;-79
2023/08/13 00:16:55;;;;;;;16.65;3.95;;;;;;;;;;4909555;28;20047;-79
2023/08/13 00:19:21;;;;;;;11.55;3.53;;;;;;;;;;4905089;28;20032;-79
2023/08/13 00:21:47;;;;;;;14.43;3.38;;;;;;;;;;4906836;28;20047;-79
2023/08/13 00:24:13;;;;;;;11.20;3.08;;;;;;;;;;4911331;28;20039;-80
2023/08/13 00:26:40;;;;;;;11.02;3.00;;;;;;;;;;4943377;28;21687;-79
2023/08/13 00:29:06;;;;;;;12.52;3.33;;;;;;;;;;4948535;28;20078;-79
2023/08/13 00:31:32;;;;;;;16.85;3.78;;;;;;;;;;4900623;28;20039;-79
2023/08/13 00:33:59;;;;;;;12.85;3.22;;;;;;;;;;4920658;28;20050;-79
2023/08/13 00:36:25;;;;;;;13.02;3.40;;;;;;;;;;4910412;28;20407;-79
2023/08/13 00:38:51;;;;;;;20.05;3.75;;;;;;;;;;4910011;28;21500;-79
2023/08/13 00:41:17;;;;;;;13.02;3.35;;;;;;;;;;4906789;28;20062;-78
2023/08/13 00:43:43;;;;;;;13.38;3.25;;;;;;;;;;4908048;28;20133;-79
2023/08/13 00:46:09;;;;;;;9.98;2.90;;;;;;;;;;4904463;28;20595;-78
2023/08/13 00:48:40;;;;;;;10.75;2.90;;;;;;;;;;4918787;28;20059;-78
2023/08/13 00:51:06;;;;;;;14.15;3.55;;;;;;;;;;4903314;28;20054;-78
2023/08/13 00:53:36;;;;;;;9.43;3.20;;;;;;;;;;4914280;28;20051;-78
2023/08/13 00:56:02;;;;;;;15.63;4.15;;;;;;;;;;4905030;28;20609;-79
2023/08/13 00:58:28;;;;;;;15.38;3.58;;;;;;;;;;4925975;28;20048;-79
2023/08/13 01:00:54;;;;;;;8.90;2.47;;;;;;;;;;4922540;28;20129;-78
2023/08/13 01:03:20;;;;;;;10.95;2.42;;;;;;;;;;4906371;28;20082;-78
2023/08/13 01:05:56;;;;;;;19.15;3.03;;;;;;;;;;4902352;28;20059;-78
2023/08/13 01:08:25;;;;;;;7.47;2.72;;;;;;;;;;4911342;28;20993;-78
2023/08/13 01:11:14;;;;;;;10.02;2.97;;;;;;;;;;4904347;28;20106;-79
2023/08/13 01:13:46;;;;;;;12.15;3.22;;;;;;;;;;4867378;28;20040;-79
2023/08/13 01:16:13;;;;;;;12.38;3.90;;;;;;;;;;4903701;28;21967;-79
2023/08/13 01:18:40;;;;;;;12.88;3.00;;;;;;;;;;4916340;28;20043;-79
2023/08/13 01:21:06;;;;;;;13.15;2.90;;;;;;;;;;4918999;28;20043;-79
2023/08/13 01:23:32;;;;;;;9.82;3.25;;;;;;;;;;4904009;28;20043;-78
2023/08/13 01:25:59;;;;;;;8.27;3.00;;;;;;;;;;4890188;28;20044;-78
2023/08/13 01:28:25;;;;;;;14.00;3.58;;;;;;;;;;4904803;28;20122;-78
2023/08/13 01:31:06;;;;;;;14.75;3.28;;;;;;;;;;4900234;28;20043;-79
2023/08/13 01:33:35;;;;;;;10.68;3.22;;;;;;;;;;4910000;28;20047;-79
2023/08/13 01:36:02;;;;;;;13.35;3.28;;;;;;;;;;4916901;28;20047;-79
2023/08/13 01:38:29;;;;;;;13.43;3.25;;;;;;;;;;4904738;28;20048;-77
2023/08/13 01:40:57;;;;;;;11.75;3.20;;;;;;;;;;4922071;28;20515;-79
2023/08/13 01:43:23;;;;;;;10.27;3.05;;;;;;;;;;4902594;28;20051;-79
2023/08/13 01:45:49;;;;;;;10.77;3.30;;;;;;;;;;4900486;28;20044;-79
2023/08/13 01:48:15;;;;;;;19.27;3.85;;;;;;;;;;4903801;28;20050;-78
2023/08/13 01:50:41;;;;;;;13.82;3.75;;;;;;;;;;4905651;28;20901;-78
2023/08/13 01:53:07;;;;;;;15.23;3.80;;;;;;;;;;4918232;28;22255;-78
2023/08/13 01:55:34;;;;;;;10.40;3.42;;;;;;;;;;4905037;28;20055;-79
2023/08/13 01:58:00;;;;;;;18.30;4.53;;;;;;;;;;4891199;28;20040;-79
2023/08/13 02:00:26;;;;;;;11.32;3.13;;;;;;;;;;4911227;28;20075;-79
2023/08/13 02:02:52;;;;;;;13.85;3.95;;;;;;;;;;4911507;28;20078;-79
2023/08/13 02:05:19;;;;;;;14.60;3.80;;;;;;;;;;4908433;28;20138;-78
2023/08/13 02:07:47;;;;;;;16.83;4.30;;;;;;;;;;4903948;28;20039;-79
2023/08/13 02:10:13;;;;;;;15.90;4.13;;;;;;;;;;4911201;28;20055;-78
2023/08/13 02:12:40;;;;;;;18.00;5.07;;;;;;;;;;4910314;28;20633;-78
2023/08/13 02:15:07;;;;;;;18.25;4.22;;;;;;;;;;4920447;28;21780;-78
2023/08/13 02:17:33;;;;;;;14.10;3.30;;;;;;;;;;4925435;28;20543;-78
2023/08/13 02:20:00;;;;;;;19.20;3.92;;;;;;;;;;4910845;28;20062;-78
2023/08/13 02:22:26;;;;;;;16.00;3.85;;;;;;;;;;4893711;28;20058;-78
2023/08/13 02:24:52;;;;;;;18.05;3.75;;;;;;;;;;4903457;28;20158;-79
2023/08/13 02:27:18;;;;;;;17.30;3.80;;;;;;;;;;4898006;28;20040;-78
2023/08/13 02:29:44;;;;;;;18.73;4.70;;;;;;;;;;4910499;28;20798;-79
2023/08/13 02:32:10;;;;;;;13.93;3.67;;;;;;;;;;4887703;28;20046;-79
2023/08/13 02:34:44;;;;;;;17.73;3.97;;;;;;;;;;4910120;28;20046;-79
2023/08/13 02:37:10;;;;;;;14.88;3.38;;;;;;;;;;4909587;28;20047;-79
2023/08/13 02:39:39;;;;;;;15.75;4.53;;;;;;;;;;4895927;28;20049;-79
2023/08/13 02:42:05;;;;;;;15.52;3.42;;;;;;;;;;4936886;28;20048;-80
2023/08/13 02:44:33;;;;;;;13.30;3.95;;;;;;;;;;4918500;28;20043;-79
2023/08/13 02:46:59;;;;;;;16.25;3.75;;;;;;;;;;4912244;28;20063;-79
2023/08/13 02:49:25;;;;;;;18.13;3.83;;;;;;;;;;4903665;28;20043;-79
2023/08/13 02:51:51;;;;;;;19.10;3.78;;;;;;;;;;4917405;28;20051;-79
2023/08/13 02:54:17;;;;;;;19.25;3.70;;;;;;;;;;4907189;28;20081;-79
2023/08/13 02:56:44;;;;;;;15.73;3.85;;;;;;;;;;4885539;28;20075;-79
2023/08/13 02:59:10;;;;;;;13.68;3.95;;;;;;;;;;4907808;28;20094;-79
2023/08/13 03:01:38;;;;;;;11.55;4.32;;;;;;;;;;4893925;28;20453;-79
2023/08/13 03:04:07;;;;;;;18.90;4.18;;;;;;;;;;4907415;28;20049;-79
2023/08/13 03:06:33;;;;;;;15.77;3.95;;;;;;;;;;4905098;28;20061;-78
2023/08/13 03:08:59;;;;;;;19.83;4.47;;;;;;;;;;4905811;28;22132;-79
2023/08/13 03:11:25;;;;;;;16.73;3.67;;;;;;;;;;4905019;28;20061;-79
2023/08/13 03:13:52;;;;;;;11.75;3.20;;;;;;;;;;4904565;28;20048;-78
2023/08/13 03:16:20;;;;;;;14.82;4.03;;;;;;;;;;4892633;28;20078;-78
2023/08/13 03:18:46;;;;;;;14.15;3.70;;;;;;;;;;4902740;28;20047;-79
2023/08/13 03:21:12;;;;;;;18.92;4.28;;;;;;;;;;4907686;28;20153;-79
2023/08/13 03:23:38;;;;;;;16.15;4.30;;;;;;;;;;4904886;28;20183;-79
2023/08/13 03:26:04;;;;;;;14.82;3.40;;;;;;;;;;4884735;28;20586;-79
2023/08/13 03:28:30;;;;;;;11.43;3.60;;;;;;;;;;4906007;28;20039;-79
2023/08/13 03:31:00;;;;;;;14.60;4.22;;;;;;;;;;4904699;28;20665;-78
2023/08/13 03:33:26;;;;;;;23.65;3.97;;;;;;;;;;4903110;28;20058;-79
2023/08/13 03:35:52;;;;;;;17.58;3.95;;;;;;;;;;4912391;28;20130;-79
2023/08/13 03:38:18;;;;;;;16.38;4.22;;;;;;;;;;4905269;28;20082;-79
2023/08/13 03:40:44;;;;;;;17.70;4.00;;;;;;;;;;4896955;28;20063;-79
2023/08/13 03:43:10;;;;;;;25.42;5.25;;;;;;;;;;4905358;28;20050;-79
2023/08/13 03:45:37;;;;;;;20.88;4.03;;;;;;;;;;4907485;28;20052;-79
2023/08/13 03:48:03;;;;;;;23.48;5.18;;;;;;;;;;4890203;28;21273;-80
2023/08/13 03:50:32;;;;;;;14.32;4.30;;;;;;;;;;4901940;28;20039;-80
2023/08/13 03:52:58;;;;;;;18.27;4.13;;;;;;;;;;4900131;28;20054;-79
2023/08/13 03:55:24;;;;;;;17.23;4.00;;;;;;;;;;4921264;28;20334;-80
2023/08/13 03:57:53;;;;;;;21.38;4.55;;;;;;;;;;4901051;28;20047;-78
2023/08/13 04:00:19;;;;;;;17.40;4.35;;;;;;;;;;4920200;28;20054;-78
2023/08/13 04:02:50;;;;;;;12.45;3.80;;;;;;;;;;4891862;28;20105;-77
2023/08/13 04:05:16;;;;;;;14.93;4.07;;;;;;;;;;4901840;28;20063;-78
2023/08/13 04:07:43;;;;;;;15.75;4.03;;;;;;;;;;4911175;28;20051;-77
2023/08/13 04:10:09;;;;;;;21.48;4.82;;;;;;;;;;4905038;28;20084;-78
2023/08/13 04:12:35;;;;;;;15.98;4.45;;;;;;;;;;4894396;28;20048;-77
2023/08/13 04:15:02;;;;;;;16.83;4.88;;;;;;;;;;4925076;28;20039;-78
2023/08/13 04:17:28;;;;;;;17.35;3.85;;;;;;;;;;4908434;28;20055;-76
2023/08/13 04:19:54;;;;;;;13.95;4.15;;;;;;;;;;4907155;28;20050;-77
2023/08/13 04:22:20;;;;;;;13.95;3.75;;;;;;;;;;4914738;28;20043;-79
2023/08/13 04:24:50;;;;;;;14.40;4.25;;;;;;;;;;4927122;28;20071;-77
2023/08/13 04:27:19;;;;;;;17.35;4.20;;;;;;;;;;4917019;28;20043;-77
2023/08/13 04:29:45;;;;;;;16.27;4.20;;;;;;;;;;4929586;28;20039;-77
2023/08/13 04:32:12;;;;;;;18.65;4.28;;;;;;;;;;4934152;28;20047;-76
2023/08/13 04:34:38;;;;;;;14.68;3.70;;;;;;;;;;4912250;28;20075;-77
2023/08/13 04:37:04;;;;;;;17.70;5.00;;;;;;;;;;4914797;28;20065;-78
2023/08/13 04:39:30;;;;;;;18.30;4.50;;;;;;;;;;4904730;28;20047;-77
2023/08/13 04:41:59;;;;;;;14.18;4.47;;;;;;;;;;4922749;28;20052;-76
2023/08/13 04:44:26;;;;;;;17.25;4.18;;;;;;;;;;4921751;28;20130;-78
2023/08/13 04:46:53;;;;;;;18.10;4.10;;;;;;;;;;4908826;28;20087;-77
2023/08/13 04:49:19;;;;;;;20.75;4.95;;;;;;;;;;4922990;28;20063;-77
2023/08/13 04:51:45;;;;;;;11.05;3.70;;;;;;;;;;4919829;28;20059;-77
2023/08/13 04:54:12;;;;;;;16.90;4.43;;;;;;;;;;4908815;28;20055;-77
2023/08/13 04:56:38;;;;;;;15.65;4.50;;;;;;;;;;4921155;28;20071;-77
2023/08/13 04:59:04;;;;;;;19.63;3.85;;;;;;;;;;4924471;28;20035;-77
2023/08/13 05:01:30;;;;;;;20.10;4.10;;;;;;;;;;4925072;28;20081;-77
2023/08/13 05:03:56;;;;;;;18.77;4.63;;;;;;;;;;4906562;28;20156;-77
2023/08/13 05:06:22;;;;;;;20.13;3.85;;;;;;;;;;4909152;28;20063;-77
2023/08/13 05:08:48;;;;;;;19.92;4.65;;;;;;;;;;4913682;28;20055;-77
2023/08/13 05:11:14;;;;;;;14.23;4.30;;;;;;;;;;4903255;28;20510;-77
2023/08/13 05:13:40;;;;;;;18.08;5.20;;;;;;;;;;4909357;28;20045;-76
2023/08/13 05:16:06;;;;;;;16.15;4.57;;;;;;;;;;4908089;28;20177;-76
2023/08/13 05:18:32;;;;;;;12.05;4.30;;;;;;;;;;4907698;28;20091;-77
2023/08/13 05:20:59;;;;;;;18.67;4.20;;;;;;;;;;4922108;28;20051;-77
2023/08/13 05:23:25;;;;;;;21.60;5.90;;;;;;;;;;4903396;28;20132;-77
2023/08/13 05:25:51;;;;;;;15.18;4.38;;;;;;;;;;4909757;28;20050;-77
2023/08/13 05:28:17;;;;;;;24.80;5.70;;;;;;;;;;4910581;28;20118;-76
2023/08/13 05:30:43;;;;;;;16.10;3.95;;;;;;;;;;4931632;28;20432;-77
2023/08/13 05:33:09;;;;;;;17.17;5.00;;;;;;;;;;4914708;28;20045;-77
2023/08/13 05:35:36;;;;;;;16.80;4.78;;;;;;;;;;4912650;28;20376;-77
2023/08/13 05:38:02;;;;;;;11.38;4.15;;;;;;;;;;4915612;28;20056;-77
2023/08/13 05:40:30;;;;;;;20.50;4.13;;;;;;;;;;4929904;28;20510;-77
2023/08/13 05:42:56;;;;;;;13.43;4.15;;;;;;;;;;4914526;28;20047;-77
2023/08/13 05:45:22;;;;;;;16.80;4.50;;;;;;;;;;4916365;28;20058;-77
2023/08/13 05:47:49;;;;;;;15.23;4.18;;;;;;;;;;4915585;28;20043;-77
2023/08/13 05:50:15;;;;;;;13.23;3.83;;;;;;;;;;4908590;28;20050;-77
2023/08/13 05:52:41;;;;;;;12.43;4.50;;;;;;;;;;4912560;28;20085;-77
2023/08/13 05:55:07;;;;;;;17.85;4.03;;;;;;;;;;4911325;28;20066;-77
2023/08/13 05:57:34;;;;;;;17.08;4.43;;;;;;;;;;4911025;28;20039;-77
2023/08/13 06:00:00;;;;;;;16.98;4.43;;;;;;;;;;4928679;28;20078;-76
2023/08/13 06:02:26;;;;;;;14.70;4.00;;;;;;;;;;4899935;28;20062;-78
2023/08/13 06:04:52;;;;;;;16.17;4.78;;;;;;;;;;4921263;28;20050;-77
2023/08/13 06:07:18;;;;;;;16.08;4.00;;;;;;;;;;4919358;28;20062;-78
2023/08/13 06:09:44;;;;;;;15.60;3.72;;;;;;;;;;4911341;28;20110;-78
2023/08/13 06:12:10;;;;;;;21.35;4.38;;;;;;;;;;4931779;28;20051;-77
2023/08/13 06:14:36;;;;;;;16.75;3.85;;;;;;;;;;4904657;28;20101;-76
2023/08/13 06:17:02;;;;;;;18.70;4.70;;;;;;;;;;4913117;28;20039;-77
2023/08/13 06:19:28;;;;;;;14.18;3.85;;;;;;;;;;4912551;28;20105;-77
2023/08/13 06:21:54;;;;;;;14.75;4.03;;;;;;;;;;4915349;28;20054;-77
2023/08/13 06:24:21;;;;;;;12.80;4.63;;;;;;;;;;4913373;28;20040;-77
2023/08/13 06:26:47;;;;;;;17.13;4.03;;;;;;;;;;4914188;28;20063;-78
2023/08/13 06:29:13;;;;;;;14.82;4.50;;;;;;;;;;4911684;28;20050;-77
2023/08/13 06:31:39;;;;;;;16.73;4.25;;;;;;;;;;4911079;28;20047;-77
2023/08/13 06:34:05;;;;;;;16.15;4.03;;;;;;;;;;4910733;28;21312;-77
2023/08/13 06:36:31;;;;;;;15.25;4.38;;;;;;;;;;4929242;28;20054;-77
2023/08/13 06:38:57;;;;;;;13.82;4.40;;;;;;;;;;4928619;28;20411;-77
2023/08/13 06:41:24;;;;;;;15.75;4.57;;;;;;;;;;4923614;28;20118;-76
2023/08/13 06:43:50;;;;;;;17.73;5.22;;;;;;;;;;4919111;28;20039;-79
2023/08/13 06:46:16;;;;;;;14.13;4.75;;;;;;;;;;4910962;28;20513;-77
2023/08/13 06:48:42;;;;;;;14.73;4.68;;;;;;;;;;4910273;28;20400;-79
2023/08/13 06:51:11;;;;;;;26.33;5.45;;;;;;;;;;4910234;28;20039;-78
2023/08/13 06:53:37;;;;;;;17.13;4.65;;;;;;;;;;4910571;28;20055;-78
2023/08/13 06:56:04;;;;;;;13.40;4.28;;;;;;;;;;4912031;28;20471;-78
2023/08/13 06:58:30;;;;;;;14.90;4.72;;;;;;;;;;4910378;28;20047;-77
2023/08/13 07:00:56;;;;;;;11.18;4.50;;;;;;;;;;4909024;28;20047;-78
2023/08/13 07:03:22;;;;;;;19.27;5.07;;;;;;;;;;4911635;28;20062;-79
2023/08/13 07:05:48;;;;;;;20.55;6.07;;;;;;;;;;4910258;28;20063;-78
2023/08/13 07:08:14;;;;;;;15.93;4.65;;;;;;;;;;4906552;28;20385;-78
2023/08/13 07:10:40;;;;;;;13.02;3.95;;;;;;;;;;4910463;28;20040;-77
2023/08/13 07:13:07;;;;;;;17.83;5.00;;;;;;;;;;4912067;28;20724;-78
2023/08/13 07:15:33;;;;;;;16.33;5.50;;;;;;;;;;4923962;28;20971;-78
2023/08/13 07:17:59;;;;;;;18.42;5.28;;;;;;;;;;4908643;28;20488;-78
2023/08/13 07:20:25;;;;;;;15.80;4.43;;;;;;;;;;4921732;28;20051;-78
2023/08/13 07:22:52;;;;;;;15.50;5.20;;;;;;;;;;4891123;28;20047;-79
2023/08/13 07:25:19;;;;;;;16.33;5.10;;;;;;;;;;4911489;28;20059;-78
2023/08/13 07:27:45;;;;;;;11.98;4.65;;;;;;;;;;4927075;28;20047;-78
2023/08/13 07:30:12;;;;;;;16.90;5.10;;;;;;;;;;4911413;28;20047;-78
2023/08/13 07:32:40;;;;;;;17.65;5.90;;;;;;;;;;4908933;28;20039;-77
2023/08/13 07:35:06;;;;;;;14.23;4.80;;;;;;;;;;4927734;28;20051;-77
2023/08/13 07:37:35;;;;;;;15.77;4.32;;;;;;;;;;4911295;28;20067;-77
2023/08/13 07:40:04;;;;;;;17.40;4.53;;;;;;;;;;4899273;28;20051;-77
2023/08/13 07:42:30;;;;;;;14.43;4.72;;;;;;;;;;4924455;28;20038;-77
2023/08/13 07:44:57;;;;;;;14.02;5.05;;;;;;;;;;4924652;28;21068;-77
2023/08/13 07:47:23;;;;;;;15.13;3.88;;;;;;;;;;4925405;28;20695;-76
2023/08/13 07:49:49;;;;;;;9.70;4.35;;;;;;;;;;4924548;28;20035;-77
2023/08/13 07:52:15;;;;;;;11.73;4.63;;;;;;;;;;4926195;28;20043;-78
2023/08/13 07:54:41;;;;;;;13.23;4.82;;;;;;;;;;4910167;28;20388;-77
2023/08/13 07:57:07;;;;;;;16.95;4.20;;;;;;;;;;4927599;28;20043;-77
2023/08/13 07:59:34;;;;;;;16.92;4.60;;;;;;;;;;4898503;28;20107;-77
2023/08/13 08:02:02;;;;;;;14.13;4.40;;;;;;;;;;4904541;28;20078;-77
2023/08/13 08:04:28;;;;;;;16.58;4.18;;;;;;;;;;4913456;28;20043;-78
2023/08/13 08:06:54;;;;;;;11.18;3.95;;;;;;;;;;4882515;28;20138;-75
2023/08/13 08:09:21;;;;;;;12.82;4.00;;;;;;;;;;4906139;28;20055;-76
2023/08/13 08:11:47;;;;;;;13.80;3.92;;;;;;;;;;4925666;28;20154;-76
2023/08/13 08:14:13;;;;;;;13.48;4.50;;;;;;;;;;4925130;28;21219;-77
2023/08/13 08:16:39;;;;;;;13.63;3.90;;;;;;;;;;4907499;28;20149;-78
2023/08/13 08:19:05;;;;;;;10.48;3.20;;;;;;;;;;4920109;28;20084;-78
2023/08/13 08:21:31;;;;;;;14.40;3.85;;;;;;;;;;4904858;28;20101;-78
2023/08/13 08:24:00;;;;;;;10.57;4.10;;;;;;;;;;4911406;28;20050;-78
2023/08/13 08:26:28;;;;;;;13.07;3.30;;;;;;;;;;4936800;28;20838;-77
2023/08/13 08:28:54;;;;;;;12.43;3.05;;;;;;;;;;4918972;28;20060;-77
2023/08/13 08:31:20;;;;;;;10.50;2.90;;;;;;;;;;4918443;28;20039;-77
2023/08/13 08:33:46;;;;;;;12.95;2.92;;;;;;;;;;4913189;28;20050;-76
2023/08/13 08:36:12;;;;;;;11.70;3.28;;;;;;;;;;4914173;28;20670;-78
2023/08/13 08:38:39;;;;;;;10.52;2.92;;;;;;;;;;4921235;28;20039;-77
2023/08/13 08:41:05;;;;;;;9.30;2.72;;;;;;;;;;4905705;28;20053;-77
2023/08/13 08:43:31;;;;;;;18.20;4.40;;;;;;;;;;4906080;28;20098;-78
2023/08/13 08:46:01;;;;;;;9.77;2.88;;;;;;;;;;4904935;28;20043;-78
2023/08/13 08:48:28;;;;;;;11.15;3.53;;;;;;;;;;4922983;28;20090;-77
2023/08/13 08:50:54;;;;;;;12.25;3.28;;;;;;;;;;4906784;28;20213;-76
2023/08/13 08:53:24;;;;;;;14.35;3.92;;;;;;;;;;4907302;28;20047;-76
2023/08/13 08:55:50;;;;;;;8.52;2.88;;;;;;;;;;4908993;28;20119;-77
2023/08/13 08:58:17;;;;;;;9.15;2.38;;;;;;;;;;4919137;28;20057;-77
2023/08/13 09:00:43;;;;;;;13.70;2.97;;;;;;;;;;4914988;28;20400;-76
2023/08/13 09:03:09;;;;;;;6.72;2.38;;;;;;;;;;4907119;28;20146;-77
2023/08/13 09:05:37;;;;;;;10.98;3.55;;;;;;;;;;4904743;28;20787;-77
2023/08/13 09:08:13;;;;;;;11.80;3.10;;;;;;;;;;4922259;28;20035;-78
2023/08/13 09:10:42;;;;;;;10.18;2.95;;;;;;;;;;4920613;28;20051;-79
2023/08/13 09:13:09;;;;;;;10.07;2.67;;;;;;;;;;4903924;28;20411;-79
2023/08/13 09:15:38;;;;;;;8.27;2.78;;;;;;;;;;4903883;28;20189;-79
2023/08/13 09:18:05;;;;;;;9.70;3.00;;;;;;;;;;4905473;28;20047;-78
2023/08/13 09:20:31;;;;;;;15.18;3.95;;;;;;;;;;4906276;28;20046;-78
2023/08/13 09:22:59;;;;;;;10.15;3.67;;;;;;;;;;4910512;28;20515;-78
2023/08/13 09:25:25;;;;;;;16.73;3.13;;;;;;;;;;4906642;28;20141;-76
2023/08/13 09:27:52;;;;;;;10.23;2.65;;;;;;;;;;4906463;28;20098;-77
2023/08/13 09:30:32;;;;;;;9.32;3.15;;;;;;;;;;4904183;28;20048;-77
2023/08/13 09:32:59;;;;;;;8.57;2.20;;;;;;;;;;4907652;28;20757;-78
2023/08/13 09:35:26;;;;;;;7.20;2.53;;;;;;;;;;4906701;28;20056;-80
2023/08/13 09:37:52;;;;;;;12.05;2.75;;;;;;;;;;4905143;28;20959;-78
2023/08/13 09:40:18;;;;;;;9.63;2.35;;;;;;;;;;4908073;28;20171;-78
2023/08/13 09:42:44;;;;;;;14.70;2.95;;;;;;;;;;4895712;28;20051;-78
2023/08/13 09:45:11;;;;;;;9.55;2.20;;;;;;;;;;4919700;28;20473;-76
2023/08/13 09:47:40;;;;;;;8.10;2.25;;;;;;;;;;4907897;28;20100;-77
2023/08/13 09:50:06;;;;;;;14.38;2.78;;;;;;;;;;4901703;28;20185;-77
2023/08/13 09:52:33;;;;;;;9.98;2.20;;;;;;;;;;4890554;28;20467;-77
2023/08/13 09:54:59;;;;;;;8.07;2.05;;;;;;;;;;4899720;28;20066;-76
2023/08/13 09:57:25;;;;;;;9.82;2.90;;;;;;;;;;4900278;28;20491;-78
2023/08/13 09:59:52;;;;;;;8.07;2.25;;;;;;;;;;4900820;28;20044;-78
2023/08/13 10:02:18;;;;;;;5.65;2.17;;;;;;;;;;4916320;28;20972;-78
2023/08/13 10:04:45;;;;;;;8.25;1.85;;;;;;;;;;4901504;28;20066;-78
2023/08/13 10:07:11;;;;;;;6.10;2.42;;;;;;;;;;4893341;28;20052;-78
2023/08/13 10:09:38;;;;;;;10.27;2.45;;;;;;;;;;4907438;28;20162;-77
2023/08/13 10:12:09;;;;;;;9.45;2.10;;;;;;;;;;4918513;28;20044;-78
2023/08/13 10:14:35;;;;;;;5.90;1.88;;;;;;;;;;4904430;28;20964;-78
2023/08/13 10:17:06;;;;;;;6.45;1.63;;;;;;;;;;4930735;28;20044;-79
2023/08/13 10:19:35;;;;;;;6.55;1.88;;;;;;;;;;4909651;28;20077;-77
2023/08/13 10:22:01;;;;;;;8.23;1.65;;;;;;;;;;4926816;28;20054;-77
2023/08/13 10:24:30;;;;;;;7.57;1.70;;;;;;;;;;4909601;28;20062;-77
2023/08/13 10:27:00;;;;;;;9.85;4.32;;;;;;;;;;4925876;28;20054;-78
2023/08/13 10:29:34;;;;;;;7.63;2.47;;;;;;;;;;4898628;28;20055;-77
2023/08/13 10:32:01;;;;;;;9.10;2.03;;;;;;;;;;4906354;28;20051;-77
2023/08/13 10:34:59;;;;;;;11.10;2.95;;;;;;;;;;4908290;28;20573;-78
2023/08/13 10:37:31;;;;;;;7.32;1.60;;;;;;;;;;4874960;28;20059;-77
2023/08/13 10:39:57;;;;;;;7.07;1.73;;;;;;;;;;4923642;28;20043;-78
2023/08/13 10:42:27;;;;;;;6.88;2.03;;;;;;;;;;4922283;28;20126;-78
2023/08/13 10:44:53;;;;;;;5.25;1.70;;;;;;;;;;4909835;28;20043;-78
2023/08/13 10:47:19;;;;;;;5.90;1.90;;;;;;;;;;4909169;28;20656;-77
2023/08/13 10:49:45;;;;;;;8.13;1.77;;;;;;;;;;4924417;28;20126;-78
2023/08/13 10:52:13;;;;;;;3.97;1.45;;;;;;;;;;4905313;28;20055;-78
2023/08/13 10:54:40;;;;;;;6.57;1.67;;;;;;;;;;4907281;28;20031;-78
2023/08/13 10:57:06;;;;;;;8.45;1.95;;;;;;;;;;4905271;28;20051;-77
2023/08/13 10:59:40;;;;;;;4.68;1.75;;;;;;;;;;4924631;28;20054;-77
2023/08/13 11:02:09;;;;;;;5.68;1.92;;;;;;;;;;4908227;28;21927;-77
2023/08/13 11:04:36;;;;;;;5.35;1.73;;;;;;;;;;4909129;28;20165;-79
2023/08/13 11:07:02;;;;;;;7.55;1.75;;;;;;;;;;4918099;28;20055;-78
2023/08/13 11:09:29;;;;;;;8.70;2.10;;;;;;;;;;4922876;28;20051;-79
2023/08/13 11:11:55;;;;;;;6.20;1.75;;;;;;;;;;4922971;28;20048;-79
2023/08/13 11:14:22;;;;;;;5.15;1.95;;;23.80;99.90;;;;;;4917692;28;20043;-79
2023/08/13 11:16:48;;;;;;;4.55;1.40;;;;;;;;;;4907456;28;20054;-79
2023/08/13 11:19:14;;;;;;;8.05;1.95;;;;;;;;;;4925573;28;20051;-79
2023/08/13 11:21:40;;;;;;;5.72;2.00;;;;;;;;;;4912160;28;20077;-79
2023/08/13 11:24:10;;;;;;;4.38;1.20;;;;;;;;;;4911190;28;20050;-75
2023/08/13 11:26:38;;;;;;;5.00;2.00;;;;;;;;;;4925400;28;20792;-75
2023/08/13 11:29:04;;;;;;;4.63;2.50;;;;;;;;;;4924012;28;20038;-76
2023/08/13 11:31:33;;;;;;;4.30;1.23;;;;;;;;;;4908990;28;22113;-74
2023/08/13 11:33:59;;;;;;;6.18;1.73;;;;;;;;;;4900169;28;20039;-75
2023/08/13 11:36:25;;;;;;;4.78;1.85;;;;;;;;;;4905254;28;20125;-75
2023/08/13 11:38:51;;;;;;;3.97;1.27;;;;;;;;;;4922599;28;20040;-74
2023/08/13 11:41:17;;;;;;;6.85;1.73;;;;;;;;;;4905736;28;20055;-75
2023/08/13 11:43:43;;;;;;;4.75;1.30;;;;;;;;;;4891856;28;20042;-74
2023/08/13 11:46:09;;;;;;;4.95;1.30;;;;;;;;;;4922074;28;20395;-75
2023/08/13 11:48:37;;;;;;;5.40;1.50;;;;;;;;;;4897903;28;20056;-76
2023/08/13 11:51:14;;;;;;;4.72;1.60;;;;;;;;;;4919947;28;20050;-74
2023/08/13 11:53:49;;;;;;;5.80;1.95;;;;;;;;;;4924969;28;20040;-75
2023/08/13 11:56:16;;;;;;;6.07;1.58;;;;;;;;;;4907698;28;20047;-75
2023/08/13 11:58:42;;;;;;;5.10;1.67;;;;;;;;;;4906490;28;20048;-76
2023/08/13 12:01:12;;;;;;;3.85;1.50;;;;;;;;;;4922009;28;21924;-75
2023/08/13 12:03:39;;;;;;;5.65;1.58;;;;;;;;;;4922651;28;20142;-76
2023/08/13 12:06:05;;;;;;;4.50;1.30;;;;;;;;;;4904798;28;21003;-76
2023/08/13 12:08:32;;;;;;;5.00;1.92;;;;;;;;;;4921338;28;20053;-78
2023/08/13 12:10:58;;;;;;;6.53;1.80;;;;;;;;;;4920303;28;20175;-77
2023/08/13 12:13:24;;;;;;;5.75;1.60;;;;;;;;;;4920860;28;20130;-77
2023/08/13 12:15:50;;;;;;;5.43;1.65;;;;;;;;;;4878030;28;20087;-76
2023/08/13 12:18:17;;;;;;;6.13;1.55;;;;;;;;;;4908276;28;20046;-78
2023/08/13 12:20:43;;;;;;;7.82;1.90;;;;;;;;;;4916195;28;20655;-78
2023/08/13 12:23:09;;;;;;;4.25;1.50;;;;;;;;;;4914778;28;20055;-77
2023/08/13 12:25:36;;;;;;;4.97;1.33;;;;;;;;;;4945308;28;20051;-78
2023/08/13 12:28:05;;;;;;;6.55;2.13;;;;;;;;;;4937421;28;20072;-79
2023/08/13 12:30:31;;;;;;;6.05;1.90;;;;;;;;;;4935387;28;20039;-78
2023/08/13 12:32:57;;;;;;;6.10;1.83;;;;;;;;;;4934584;28;20108;-79
2023/08/13 12:35:23;;;;;;;4.90;1.30;;;;;;;;;;4938189;28;20040;-84
2023/08/13 12:37:52;;;;;;;6.70;1.50;;;;;;;;;;4933660;28;20038;-83
2023/08/13 12:40:18;;;;;;;6.63;1.70;;;;;;;;;;4939649;28;20492;-83
2023/08/13 12:42:45;;;;;;;5.50;1.60;;;;;;;;;;4933260;28;20043;-84
2023/08/13 12:45:11;;;;;;;5.80;1.45;;;;;;;;;;4922350;28;20059;-83
2023/08/13 12:47:37;;;;;;;3.00;1.30;;;;;;;;;;4913233;28;20507;-82
2023/08/13 12:50:04;;;;;;;4.43;1.50;;;;;;;;;;4910348;28;20047;-83
2023/08/13 12:52:30;;;;;;;4.75;1.38;;;;;;;;;;4909574;28;20126;-83
2023/08/13 12:54:56;;;;;;;5.07;1.50;;;;;;;;;;4913018;28;20081;-83
2023/08/13 12:57:23;;;;;;;3.85;1.23;;;;;;;;;;4923975;28;20046;-83
2023/08/13 12:59:49;;;;;;;5.18;1.42;;;;;;;;;;4907767;28;20094;-83
2023/08/13 13:02:15;;;;;;;6.20;1.80;;;;;;;;;;4926402;28;20043;-83
2023/08/13 13:04:41;;;;;;;7.00;1.48;;;;;;;;;;4945710;28;22315;-82
2023/08/13 13:07:07;;;;;;;5.20;1.40;;;;;;;;;;4928245;28;20063;-83
2023/08/13 13:09:33;;;;;;;6.15;1.65;;;;;;;;;;4933418;28;20130;-83
2023/08/13 13:11:59;;;;;;;5.55;1.52;;;;;;;;;;4918653;28;20051;-82
2023/08/13 13:14:25;;;;;;;11.50;1.65;;;;;;;;;;4921569;28;20035;-83
2023/08/13 13:16:52;;;;;;;5.43;1.27;;;;;;;;;;4924407;28;20049;-82
2023/08/13 13:19:18;;;;;;;3.78;1.50;;;;;;;;;;4916944;28;20062;-82
2023/08/13 13:21:44;;;;;;;7.10;1.80;;;;;;;;;;4918206;28;21164;-83
2023/08/13 13:24:10;;;;;;;3.83;1.50;;;;;;;;;;4892030;28;20036;-83
2023/08/13 13:26:37;;;;;;;7.30;1.30;;;;;;;;;;4938241;28;20047;-83
2023/08/13 13:29:03;;;;;;;4.35;1.20;;;;;;;;;;4921282;28;20035;-83
2023/08/13 13:31:29;;;;;;;1.65;0.80;;;;;;;;;;4923172;28;20075;-83
2023/08/13 13:33:55;;;;;;;3.15;1.13;;;;;;;;;;4921794;28;20043;-83
2023/08/13 13:36:22;;;;;;;4.18;0.98;;;;;;;;;;4908095;28;20047;-84
2023/08/13 13:38:48;;;;;;;3.85;0.93;;;;;;;;;;4908937;28;20055;-83
2023/08/13 13:41:14;;;;;;;4.00;1.45;;;;;;;;;;4908227;28;20998;-84
2023/08/13 13:43:40;;;;;;;2.40;1.00;;;;;;;;;;4918538;28;20464;-83
2023/08/13 13:46:07;;;;;;;5.82;1.27;;;;;;;;;;4912261;28;20178;-83
2023/08/13 13:48:33;;;;;;;3.90;1.10;;;;;;;;;;4896801;28;20117;-83
2023/08/13 13:50:59;;;;;;;2.83;0.95;;;;;;;;;;4939486;28;20043;-83
2023/08/13 13:53:25;;;;;;;3.78;1.10;;;;;;;;;;4910760;28;20139;-83
2023/08/13 13:55:51;;;;;;;2.88;1.00;;;;;;;;;;4924518;28;20054;-83
2023/08/13 13:58:17;;;;;;;4.00;1.10;;;;;;;;;;4917135;28;20174;-78
2023/08/13 14:00:44;;;;;;;3.10;1.15;;;;;;;;;;4904317;28;20726;-80
2023/08/13 14:03:10;;;;;;;2.60;1.10;;;;;;;;;;4910173;28;20107;-79
2023/08/13 14:05:36;;;;;;;4.38;1.30;;;;;;;;;;4909328;28;20130;-80
2023/08/13 14:08:02;;;;;;;3.40;1.20;;;;;;;;;;4903771;28;20051;-80
2023/08/13 14:10:28;;;;;;;3.38;0.98;;;;;;;;;;4920534;28;20067;-79
2023/08/13 14:12:54;;;;;;;4.05;1.13;;;;;;;;;;4921400;28;20059;-79
2023/08/13 14:15:21;;;;;;;4.03;1.33;;;;;;;;;;4911460;28;20142;-79
2023/08/13 14:17:47;;;;;;;2.95;1.15;;;;;;;;;;4909386;28;20134;-79
2023/08/13 14:20:13;;;;;;;3.13;0.98;;;;;;;;;;4898789;28;20047;-79
2023/08/13 14:22:39;;;;;;;4.55;1.15;;;;;;;;;;4915555;28;20047;-78
2023/08/13 14:25:05;;;;;;;3.00;1.17;;;;;;;;;;4907776;28;20385;-78
2023/08/13 14:27:31;;;;;;;2.95;1.40;;;;;;;;;;4907708;28;20049;-78
2023/08/13 14:29:57;;;;;;;5.57;1.13;;;;;;;;;;4904752;28;20059;-78
2023/08/13 14:32:23;;;;;;;5.45;1.40;;;;;;;;;;4904533;28;20117;-78